createdAt,value
2022-10-08T00:01:12.410Z,21.20
2022-10-08T00:03:43.416Z,20.93
2022-10-08T00:06:13.561Z,22.30
2022-10-08T00:08:43.213Z,22.67
2022-10-08T00:11:13.524Z,21.67
2022-10-08T00:13:42.527Z,22.17
2022-10-08T00:16:12.639Z,21.47
2022-10-08T00:18:41.188Z,22.33
2022-10-08T00:21:31.676Z,24.43
2022-10-08T00:24:01.381Z,22.83
2022-10-08T00:26:30.419Z,23.40
2022-10-08T00:29:01.627Z,23.97
2022-10-08T00:31:35.962Z,24.13
2022-10-08T00:34:05.979Z,25.03
2022-10-08T00:36:34.510Z,24.77
2022-10-08T00:39:16.520Z,24.13
2022-10-08T00:41:46.046Z,25.07
2022-10-08T00:44:46.913Z,25.57
2022-10-08T00:47:35.429Z,24.93
2022-10-08T00:50:06.246Z,25.23
2022-10-08T00:52:41.729Z,25.90
2022-10-08T00:55:10.503Z,27.50
2022-10-08T00:57:38.896Z,26.20
2022-10-08T01:00:09.812Z,27.50
2022-10-08T01:02:36.977Z,27.57
2022-10-08T01:05:05.939Z,27.00
2022-10-08T01:08:05.716Z,28.73
2022-10-08T01:10:56.612Z,27.50
2022-10-08T01:13:24.009Z,27.77
2022-10-08T01:16:00.466Z,28.30
2022-10-08T01:18:48.256Z,29.30
2022-10-08T01:21:59.517Z,26.40
2022-10-08T01:25:06.994Z,26.60
2022-10-08T01:27:45.727Z,27.70
2022-10-08T01:30:16.452Z,28.87
2022-10-08T01:33:12.417Z,26.27
2022-10-08T01:35:48.631Z,28.93
2022-10-08T01:38:17.889Z,27.60
2022-10-08T01:40:47.257Z,28.47
2022-10-08T01:43:17.401Z,26.87
2022-10-08T01:45:52.280Z,27.67
2022-10-08T01:48:25.099Z,27.30
2022-10-08T01:51:06.592Z,29.07
2022-10-08T01:53:39.492Z,29.03
2022-10-08T01:56:11.066Z,29.27
2022-10-08T01:59:13.453Z,28.60
2022-10-08T02:01:59.094Z,28.93
2022-10-08T02:04:35.697Z,29.33
2022-10-08T02:07:09.413Z,27.77
2022-10-08T02:09:46.451Z,29.50
2022-10-08T02:12:14.526Z,29.00
2022-10-08T02:14:46.896Z,29.43
2022-10-08T02:17:47.852Z,28.50
2022-10-08T02:20:33.204Z,29.50
2022-10-08T02:23:24.775Z,30.27
2022-10-08T02:25:57.304Z,29.67
2022-10-08T02:28:51.269Z,28.40
2022-10-08T02:31:18.210Z,26.40
2022-10-08T02:33:50.098Z,29.57
2022-10-08T02:36:22.941Z,28.70
2022-10-08T02:38:59.490Z,29.27
2022-10-08T02:41:30.932Z,26.77
2022-10-08T02:44:03.173Z,28.07
2022-10-08T02:46:35.212Z,28.73
2022-10-08T02:49:08.316Z,26.87
2022-10-08T02:51:40.734Z,28.73
2022-10-08T02:54:09.269Z,28.53
2022-10-08T02:56:58.914Z,27.57
2022-10-08T02:59:26.693Z,28.00
2022-10-08T03:02:03.040Z,28.73
2022-10-08T03:04:45.592Z,30.00
2022-10-08T03:07:15.186Z,28.40
2022-10-08T03:09:44.957Z,30.67
2022-10-08T03:12:12.711Z,31.13
2022-10-08T03:14:43.761Z,29.03
2022-10-08T03:17:14.103Z,30.67
2022-10-08T03:19:41.044Z,30.90
2022-10-08T03:22:08.551Z,31.77
2022-10-08T03:24:36.492Z,30.87
2022-10-08T03:27:04.534Z,30.13
2022-10-08T03:29:31.569Z,30.33
2022-10-08T03:31:58.584Z,31.23
2022-10-08T03:34:26.158Z,29.33
2022-10-08T03:36:53.073Z,31.43
2022-10-08T03:39:20.048Z,28.97
2022-10-08T03:41:47.186Z,29.30
2022-10-08T03:44:14.152Z,29.53
2022-10-08T03:46:41.101Z,28.30
2022-10-08T03:49:08.080Z,26.70
2022-10-08T03:51:35.092Z,28.00
2022-10-08T03:54:02.032Z,26.87
2022-10-08T03:56:29.066Z,25.37
2022-10-08T03:59:00.332Z,24.77
2022-10-08T04:01:28.660Z,25.00
2022-10-08T04:03:55.980Z,25.43
2022-10-08T04:06:23.264Z,26.47
2022-10-08T04:08:50.303Z,23.60
2022-10-08T04:11:18.216Z,24.70
2022-10-08T04:13:45.329Z,23.50
2022-10-08T04:16:17.102Z,26.27
2022-10-08T04:18:44.951Z,26.20
2022-10-08T04:21:15.224Z,24.47
2022-10-08T04:23:43.557Z,23.73
2022-10-08T04:26:12.961Z,26.07
2022-10-08T04:28:41.811Z,25.97
2022-10-08T04:31:12.121Z,24.23
2022-10-08T04:33:39.742Z,25.70
2022-10-08T04:36:15.399Z,23.93
2022-10-08T04:38:43.787Z,25.23
2022-10-08T04:41:23.267Z,25.60
2022-10-08T04:43:50.782Z,26.63
2022-10-08T04:46:19.788Z,26.90
2022-10-08T04:48:56.773Z,27.23
2022-10-08T04:51:25.827Z,26.17
2022-10-08T04:53:53.906Z,27.13
2022-10-08T04:56:26.794Z,25.87
2022-10-08T04:58:57.420Z,24.37
2022-10-08T05:01:26.151Z,24.80
2022-10-08T05:03:54.922Z,26.57
2022-10-08T05:06:28.137Z,25.37
2022-10-08T05:08:55.720Z,24.63
2022-10-08T05:11:27.158Z,24.57
2022-10-08T05:13:55.692Z,23.93
2022-10-08T05:16:23.716Z,24.37
2022-10-08T05:18:52.059Z,22.90
2022-10-08T05:21:24.542Z,23.33
2022-10-08T05:24:07.713Z,23.93
2022-10-08T05:29:24.267Z,24.13
2022-10-08T05:31:51.412Z,23.57
2022-10-08T05:34:18.460Z,22.90
2022-10-08T05:36:45.707Z,25.53
2022-10-08T05:39:12.723Z,23.90
2022-10-08T05:41:40.472Z,24.23
2022-10-08T05:44:08.481Z,23.80
2022-10-08T05:46:37.017Z,24.80
2022-10-08T05:49:07.472Z,25.00
2022-10-08T05:51:34.759Z,23.93
2022-10-08T05:54:01.741Z,21.93
2022-10-08T05:56:29.383Z,24.77
2022-10-08T05:58:56.470Z,24.17
2022-10-08T06:01:25.044Z,23.57
2022-10-08T06:03:53.861Z,24.10
2022-10-08T06:06:21.493Z,25.70
2022-10-08T06:08:52.578Z,24.77
2022-10-08T06:11:19.544Z,26.17
2022-10-08T06:13:46.567Z,25.40
2022-10-08T06:16:13.658Z,25.17
2022-10-08T06:18:41.777Z,26.07
2022-10-08T06:21:11.517Z,26.83
2022-10-08T06:23:40.105Z,27.03
2022-10-08T06:26:09.813Z,27.60
2022-10-08T06:28:38.928Z,28.23
2022-10-08T06:31:07.778Z,27.50
2022-10-08T06:33:35.380Z,30.40
2022-10-08T06:36:20.044Z,27.67
2022-10-08T06:38:51.328Z,28.80
2022-10-08T06:41:18.494Z,29.27
2022-10-08T06:43:46.039Z,27.80
2022-10-08T06:46:13.194Z,28.23
2022-10-08T06:48:40.205Z,28.97
2022-10-08T06:51:12.364Z,28.93
2022-10-08T06:53:40.171Z,29.77
2022-10-08T06:56:10.776Z,30.63
2022-10-08T06:58:38.601Z,31.50
2022-10-08T07:01:33.269Z,31.63
2022-10-08T07:04:01.950Z,28.77
2022-10-08T07:06:29.314Z,32.07
2022-10-08T07:08:58.505Z,32.47
2022-10-08T07:11:26.014Z,30.47
2022-10-08T07:13:54.855Z,30.67
2022-10-08T07:16:23.910Z,30.70
2022-10-08T07:18:52.662Z,30.47
2022-10-08T07:21:21.820Z,29.63
2022-10-08T07:23:49.471Z,30.20
2022-10-08T07:26:27.407Z,28.07
2022-10-08T07:29:00.447Z,27.90
2022-10-08T07:31:30.344Z,25.33
2022-10-08T07:33:58.281Z,24.43
2022-10-08T07:36:26.403Z,24.53
2022-10-08T07:38:56.996Z,23.03
2022-10-08T07:41:26.504Z,22.17
2022-10-08T07:43:55.369Z,22.30
2022-10-08T07:46:22.779Z,21.93
2022-10-08T07:48:50.890Z,21.50
2022-10-08T07:51:19.876Z,19.50
2022-10-08T07:53:47.462Z,19.80
2022-10-08T07:56:17.146Z,19.30
2022-10-08T07:58:44.260Z,19.93
2022-10-08T08:01:14.903Z,19.60
2022-10-08T08:03:42.556Z,19.07
2022-10-08T08:06:12.766Z,19.57
2022-10-08T08:08:43.027Z,19.13
2022-10-08T08:11:12.313Z,21.20
2022-10-08T08:13:40.238Z,20.93
2022-10-08T08:16:13.737Z,22.77
2022-10-08T08:18:43.644Z,22.57
2022-10-08T08:21:38.429Z,22.53
2022-10-08T08:24:10.555Z,22.57
2022-10-08T08:26:39.048Z,21.27
2022-10-08T08:29:12.404Z,23.20
2022-10-08T08:31:43.375Z,23.57
2022-10-08T08:34:13.577Z,23.00
2022-10-08T08:36:43.428Z,23.53
2022-10-08T08:39:17.362Z,22.43
2022-10-08T08:42:05.676Z,22.47
2022-10-08T08:44:34.764Z,24.23
2022-10-08T08:47:04.234Z,22.67
2022-10-08T08:49:37.802Z,24.30
2022-10-08T08:52:06.444Z,23.40
2022-10-08T08:54:33.483Z,23.07
2022-10-08T08:57:09.464Z,23.53
2022-10-08T08:59:42.105Z,24.33
2022-10-08T09:02:23.845Z,24.47
2022-10-08T09:05:00.546Z,23.70
2022-10-08T09:07:34.614Z,24.00
2022-10-08T09:10:06.630Z,25.20
2022-10-08T09:12:37.904Z,25.40
2022-10-08T09:15:14.127Z,25.10
2022-10-08T09:17:42.095Z,25.40
2022-10-08T09:20:14.224Z,25.77
2022-10-08T09:22:41.589Z,26.30
2022-10-08T09:25:16.812Z,26.83
2022-10-08T09:27:54.632Z,26.73
2022-10-08T09:30:39.665Z,27.40
2022-10-08T09:33:12.899Z,26.53
2022-10-08T09:35:46.499Z,27.47
2022-10-08T09:38:36.868Z,26.57
2022-10-08T09:41:03.813Z,25.70
2022-10-08T09:43:33.506Z,26.37
2022-10-08T09:46:04.680Z,26.50
2022-10-08T09:48:31.762Z,24.73
2022-10-08T09:51:04.949Z,25.40
2022-10-08T09:53:45.342Z,24.30
2022-10-08T09:56:14.196Z,23.77
2022-10-08T09:58:54.896Z,23.27
2022-10-08T10:01:22.462Z,22.60
2022-10-08T10:04:02.036Z,24.50
2022-10-08T10:06:35.161Z,22.80
2022-10-08T10:09:29.937Z,21.40
2022-10-08T10:12:34.050Z,23.87
2022-10-08T10:15:04.189Z,23.93
2022-10-08T10:17:36.932Z,23.63
2022-10-08T10:20:22.629Z,23.70
2022-10-08T10:23:06.539Z,21.83
2022-10-08T10:25:45.701Z,20.83
2022-10-08T10:28:36.718Z,19.87
2022-10-08T10:31:07.381Z,20.00
2022-10-08T10:33:52.645Z,19.37
2022-10-08T10:36:20.936Z,20.53
2022-10-08T10:39:03.299Z,21.93
2022-10-08T10:41:43.408Z,18.73
2022-10-08T10:44:16.965Z,20.47
2022-10-08T10:46:53.652Z,18.10
2022-10-08T10:49:31.297Z,20.70
2022-10-08T10:52:22.580Z,19.60
2022-10-08T10:55:02.730Z,18.87
2022-10-08T10:58:00.603Z,19.13
2022-10-08T11:00:31.719Z,19.17
2022-10-08T11:03:23.119Z,19.30
2022-10-08T11:06:04.741Z,18.00
2022-10-08T11:09:00.996Z,18.33
2022-10-08T11:11:33.333Z,17.67
2022-10-08T11:14:12.173Z,19.07
2022-10-08T11:16:57.069Z,18.67
2022-10-08T11:19:26.793Z,18.80
2022-10-08T11:22:02.309Z,16.20
2022-10-08T11:24:44.744Z,16.33
2022-10-08T11:27:36.621Z,19.20
2022-10-08T11:30:23.270Z,19.90
2022-10-08T11:32:54.092Z,18.77
2022-10-08T11:35:27.482Z,17.27
2022-10-08T11:38:03.633Z,17.67
2022-10-08T11:40:51.621Z,16.73
2022-10-08T11:43:24.365Z,15.70
2022-10-08T11:46:20.739Z,15.13
2022-10-08T11:48:48.463Z,19.73
2022-10-08T11:51:21.947Z,19.30
2022-10-08T11:54:06.919Z,19.10
2022-10-08T11:56:37.359Z,18.40
2022-10-08T11:59:29.513Z,19.40
2022-10-08T12:02:22.929Z,17.90
2022-10-08T12:04:52.624Z,20.60
2022-10-08T12:07:25.095Z,19.67
2022-10-08T12:10:06.963Z,18.33
2022-10-08T12:13:11.085Z,18.90
2022-10-08T12:15:40.486Z,17.27
2022-10-08T12:18:10.334Z,16.43
2022-10-08T12:20:39.762Z,19.13
2022-10-08T12:23:34.430Z,18.03
2022-10-08T12:26:01.423Z,18.27
2022-10-08T12:28:28.420Z,17.90
2022-10-08T12:30:58.654Z,19.47
2022-10-08T12:33:26.021Z,17.47
2022-10-08T12:36:34.346Z,16.80
2022-10-08T12:39:41.107Z,16.73
2022-10-08T12:42:31.622Z,17.83
2022-10-08T12:45:01.392Z,16.23
2022-10-08T12:47:40.652Z,15.03
2022-10-08T12:50:25.704Z,15.20
2022-10-08T12:52:53.312Z,13.90
2022-10-08T12:55:23.330Z,13.90
2022-10-08T12:57:51.867Z,14.70
2022-10-08T13:00:28.535Z,13.67
2022-10-08T13:03:11.811Z,13.27
2022-10-08T13:05:40.794Z,13.67
2022-10-08T13:08:26.595Z,12.67
2022-10-08T13:10:53.755Z,12.27
2022-10-08T13:13:33.559Z,12.03
2022-10-08T13:16:02.427Z,12.63
2022-10-08T13:18:30.879Z,12.53
2022-10-08T13:21:07.970Z,11.17
2022-10-08T13:23:44.356Z,11.30
2022-10-08T13:26:43.769Z,11.53
2022-10-08T13:29:37.293Z,12.43
2022-10-08T13:32:27.122Z,11.27
2022-10-08T13:35:05.412Z,10.43
2022-10-08T13:37:40.459Z,9.13
2022-10-08T13:40:13.679Z,9.07
2022-10-08T13:42:43.078Z,10.03
2022-10-08T13:45:20.860Z,9.33
2022-10-08T13:47:48.786Z,9.77
2022-10-08T13:50:16.814Z,9.50
2022-10-08T13:52:54.340Z,8.43
2022-10-08T13:55:31.349Z,9.80
2022-10-08T13:58:01.970Z,9.43
2022-10-08T14:00:35.661Z,11.20
2022-10-08T14:03:03.304Z,9.77
2022-10-08T14:05:35.161Z,10.53
2022-10-08T14:08:12.337Z,9.37
2022-10-08T14:10:41.234Z,8.43
2022-10-08T14:13:11.130Z,8.67
2022-10-08T14:15:38.064Z,10.93
2022-10-08T14:18:05.222Z,8.70
2022-10-08T14:20:32.591Z,8.53
2022-10-08T14:22:59.594Z,8.27
2022-10-08T14:25:28.571Z,8.47
2022-10-08T14:27:55.572Z,8.60
2022-10-08T14:30:22.525Z,10.07
2022-10-08T14:32:49.504Z,8.60
2022-10-08T14:35:17.078Z,7.90
2022-10-08T14:37:44.232Z,7.10
2022-10-08T14:40:16.900Z,8.50
2022-10-08T14:42:43.894Z,8.40
2022-10-08T14:45:11.171Z,8.13
2022-10-08T14:47:38.207Z,8.67
2022-10-08T14:50:06.038Z,8.20
2022-10-08T14:52:33.147Z,8.57
2022-10-08T14:55:00.167Z,8.80
2022-10-08T14:57:27.111Z,8.03
2022-10-08T14:59:54.129Z,8.67
2022-10-08T15:02:21.099Z,8.40
2022-10-08T15:04:48.074Z,9.63
2022-10-08T15:07:15.281Z,7.43
2022-10-08T15:09:43.081Z,7.30
2022-10-08T15:12:10.013Z,8.23
2022-10-08T15:14:38.400Z,8.80
2022-10-08T15:17:05.701Z,8.20
2022-10-08T15:19:32.732Z,8.10
2022-10-08T15:21:59.705Z,9.07
2022-10-08T15:24:26.626Z,7.43
2022-10-08T15:26:53.568Z,8.30
2022-10-08T15:29:20.536Z,8.20
2022-10-08T15:31:50.924Z,8.27
2022-10-08T15:34:19.810Z,8.00
2022-10-08T15:36:47.322Z,7.27
2022-10-08T15:39:17.055Z,7.57
2022-10-08T15:41:47.091Z,7.20
2022-10-08T15:44:26.231Z,7.47
2022-10-08T15:46:59.712Z,7.40
2022-10-08T15:49:31.396Z,7.77
2022-10-08T15:51:59.099Z,9.73
2022-10-08T15:54:26.097Z,8.23
2022-10-08T15:56:53.129Z,9.03
2022-10-08T15:59:20.231Z,8.97
2022-10-08T16:01:47.194Z,8.30
2022-10-08T16:04:14.688Z,7.97
2022-10-08T16:06:45.231Z,9.00
2022-10-08T16:09:13.801Z,8.63
2022-10-08T16:11:41.412Z,8.70
2022-10-08T16:14:19.372Z,8.90
2022-10-08T16:16:46.666Z,7.50
2022-10-08T16:19:18.584Z,7.20
2022-10-08T16:21:46.823Z,6.97
2022-10-08T16:24:14.373Z,8.30
2022-10-08T16:26:42.333Z,7.07
2022-10-08T16:29:12.785Z,7.50
2022-10-08T16:31:41.103Z,6.90
2022-10-08T16:34:19.172Z,7.13
2022-10-08T16:36:48.058Z,6.90
2022-10-08T16:39:20.852Z,7.57
2022-10-08T16:41:48.968Z,7.60
2022-10-08T16:44:19.019Z,8.47
2022-10-08T16:46:50.173Z,7.90
2022-10-08T16:49:28.727Z,7.30
2022-10-08T16:52:01.657Z,6.57
2022-10-08T16:54:29.059Z,7.40
2022-10-08T16:56:56.801Z,7.37
2022-10-08T16:59:25.948Z,7.93
2022-10-08T17:01:55.718Z,6.80
2022-10-08T17:04:25.042Z,7.40
2022-10-08T17:06:52.136Z,6.30
2022-10-08T17:09:20.426Z,6.77
2022-10-08T17:11:47.483Z,6.37
2022-10-08T17:14:14.509Z,7.63
2022-10-08T17:16:43.508Z,7.13
2022-10-08T17:19:10.827Z,8.77
2022-10-08T17:21:38.433Z,8.17
2022-10-08T17:24:06.143Z,8.83
2022-10-08T17:26:33.557Z,8.57
2022-10-08T17:29:09.214Z,9.27
2022-10-08T17:31:37.295Z,8.93
2022-10-08T17:34:04.871Z,9.47
2022-10-08T17:36:34.687Z,9.80
2022-10-08T17:39:05.405Z,9.37
2022-10-08T17:41:34.707Z,13.27
2022-10-08T17:44:04.577Z,10.40
2022-10-08T17:46:35.363Z,9.93
2022-10-08T17:49:03.206Z,10.07
2022-10-08T17:51:30.686Z,9.57
2022-10-08T17:54:01.894Z,10.17
2022-10-08T17:56:29.840Z,11.13
2022-10-08T17:58:57.259Z,10.97
2022-10-08T18:01:36.004Z,10.70
2022-10-08T18:04:06.062Z,11.93
2022-10-08T18:06:35.409Z,11.63
2022-10-08T18:09:05.252Z,13.03
2022-10-08T18:11:34.936Z,12.80
2022-10-08T18:14:03.702Z,11.70
2022-10-08T18:16:30.811Z,13.00
2022-10-08T18:18:57.911Z,12.60
2022-10-08T18:21:25.030Z,12.33
2022-10-08T18:23:52.498Z,12.70
2022-10-08T18:26:25.540Z,13.00
2022-10-08T18:28:58.035Z,12.90
2022-10-08T18:31:28.709Z,13.37
2022-10-08T18:33:57.949Z,13.53
2022-10-08T18:36:30.456Z,14.10
2022-10-08T18:39:03.152Z,14.47
2022-10-08T18:41:38.812Z,14.73
2022-10-08T18:44:06.588Z,13.40
2022-10-08T18:46:35.966Z,14.57
2022-10-08T18:49:03.824Z,14.33
2022-10-08T18:51:31.905Z,15.03
2022-10-08T18:54:01.960Z,14.90
2022-10-08T18:56:32.056Z,15.33
2022-10-08T18:59:03.924Z,14.83
2022-10-08T19:01:36.503Z,15.10
2022-10-08T19:04:09.604Z,16.13
2022-10-08T19:06:38.873Z,17.13
2022-10-08T19:09:06.748Z,15.93
2022-10-08T19:11:45.178Z,17.83
2022-10-08T19:14:14.884Z,16.90
2022-10-08T19:16:42.498Z,16.97
2022-10-08T19:19:19.554Z,18.37
2022-10-08T19:21:48.221Z,17.10
2022-10-08T19:24:21.922Z,18.00
2022-10-08T19:26:49.656Z,18.30
2022-10-08T19:29:19.768Z,19.13
2022-10-08T19:31:47.964Z,19.37
2022-10-08T19:34:20.414Z,19.20
2022-10-08T19:36:48.514Z,19.87
2022-10-08T19:39:20.981Z,21.43
2022-10-08T19:41:48.980Z,19.73
2022-10-08T19:44:19.177Z,20.93
2022-10-08T19:46:47.016Z,20.93
2022-10-08T19:49:14.548Z,21.40
2022-10-08T19:51:43.110Z,20.97
2022-10-08T19:54:10.729Z,21.03
2022-10-08T19:56:37.768Z,20.57
2022-10-08T19:59:05.570Z,22.03
2022-10-08T20:01:36.218Z,20.70
2022-10-08T20:04:05.526Z,21.17
2022-10-08T20:06:35.835Z,21.10
2022-10-08T20:09:04.194Z,22.20
2022-10-08T20:11:32.310Z,21.10
2022-10-08T20:14:00.681Z,20.30
2022-10-08T20:16:33.852Z,21.90
2022-10-08T20:19:07.459Z,22.77
2022-10-08T20:21:37.909Z,22.57
2022-10-08T20:24:06.259Z,21.87
2022-10-08T20:26:38.891Z,22.63
2022-10-08T20:29:12.468Z,22.13
2022-10-08T20:31:42.616Z,23.90
2022-10-08T20:34:17.394Z,22.20
2022-10-08T20:36:46.105Z,24.47
2022-10-08T20:39:15.220Z,23.20
2022-10-08T20:41:42.906Z,23.27
2022-10-08T20:44:10.152Z,24.63
2022-10-08T20:46:38.590Z,23.90
2022-10-08T20:49:06.162Z,24.10
2022-10-08T20:51:33.902Z,24.67
2022-10-08T20:54:04.742Z,24.43
2022-10-08T20:56:38.476Z,24.17
2022-10-08T20:59:06.143Z,24.07
2022-10-08T21:01:35.840Z,25.67
2022-10-08T21:04:03.221Z,25.47
2022-10-08T21:06:34.635Z,26.37
2022-10-08T21:09:01.814Z,25.43
2022-10-08T21:11:30.353Z,26.70
2022-10-08T21:14:01.498Z,26.53
2022-10-08T21:16:31.809Z,24.23
2022-10-08T21:19:01.295Z,30.07
2022-10-08T21:21:29.960Z,31.10
2022-10-08T21:23:58.026Z,30.10
2022-10-08T21:26:33.222Z,28.67
2022-10-08T21:29:02.482Z,28.20
2022-10-08T21:31:31.517Z,29.27
2022-10-08T21:33:59.029Z,29.73
2022-10-08T21:36:32.184Z,28.20
2022-10-08T21:39:00.687Z,27.93
2022-10-08T21:41:30.423Z,30.37
2022-10-08T21:43:59.953Z,29.63
2022-10-08T21:46:29.902Z,33.97
2022-10-08T21:48:59.343Z,33.23
2022-10-08T21:51:27.574Z,32.90
2022-10-08T21:53:56.683Z,31.63
2022-10-08T21:56:26.672Z,30.30
2022-10-08T21:58:56.107Z,32.73
2022-10-08T22:01:28.046Z,32.40
2022-10-08T22:03:55.857Z,32.23
2022-10-08T22:06:23.469Z,32.43
2022-10-08T22:08:50.839Z,34.33
2022-10-08T22:11:17.823Z,33.30
2022-10-08T22:13:45.480Z,35.43
2022-10-08T22:16:14.677Z,34.93
2022-10-08T22:18:42.117Z,36.00
2022-10-08T22:21:20.479Z,36.43
2022-10-08T22:23:48.756Z,34.60
2022-10-08T22:26:31.582Z,37.93
2022-10-08T22:28:59.039Z,37.03
2022-10-08T22:31:26.919Z,35.30
2022-10-08T22:33:54.053Z,35.83
2022-10-08T22:36:26.738Z,37.40
2022-10-08T22:38:54.491Z,35.63
2022-10-08T22:41:27.069Z,35.97
2022-10-08T22:43:54.469Z,36.57
2022-10-08T22:46:28.139Z,36.13
2022-10-08T22:49:03.653Z,35.43
2022-10-08T22:51:30.969Z,34.37
2022-10-08T22:53:57.966Z,36.37
2022-10-08T22:56:27.742Z,37.57
2022-10-08T22:58:54.757Z,36.83
2022-10-08T23:01:24.559Z,34.70
2022-10-08T23:03:52.076Z,37.17
2022-10-08T23:06:28.011Z,36.90
2022-10-08T23:09:00.823Z,36.93
2022-10-08T23:11:29.270Z,35.67
2022-10-08T23:13:58.012Z,36.50
2022-10-08T23:16:26.551Z,39.33
2022-10-08T23:18:58.646Z,38.53
2022-10-08T23:21:26.834Z,38.97
2022-10-08T23:23:54.608Z,36.43
2022-10-08T23:26:22.786Z,38.23
2022-10-08T23:28:55.096Z,40.00
2022-10-08T23:31:24.880Z,42.13
2022-10-08T23:33:53.737Z,42.70
2022-10-08T23:36:23.897Z,40.10
2022-10-08T23:38:51.002Z,41.00
2022-10-08T23:41:18.574Z,41.27
2022-10-08T23:43:47.456Z,41.43
2022-10-08T23:46:17.930Z,43.20
2022-10-08T23:48:45.452Z,43.40
2022-10-08T23:51:13.589Z,43.43
2022-10-08T23:53:41.352Z,45.60
2022-10-08T23:56:08.666Z,43.60
2022-10-08T23:58:36.336Z,45.53
